Startpagina
METAR-TAF:

METAR-TAF

Vliegvelden :

Bella Bella, Brits Columbia, Canada

breedte: 52-11-06N, lengte: 128-09-24W, hoogte: 43 m

Actueel weer

Dit bericht is 37 minuten geleden gemaakt, om 19:00 UTC
Wind 6 kt uit het noorden, variërend tussen het westnoordwesten en het noordnoordoosten
Temperatuur 10°C
Vochtigheid 82%
Druk 1022 hPa
Zicht: 14.5 km
Weinig wolken op 1000 ft

METAR: CBBC 101900Z AUTO 35006KT 290V020 9SM FEW010 10/07 A3018 RMK SLP222

Tijdstip: 12:37 (19:37 UTC)

Verwachting

Dit bericht is 59 minuten geleden gemaakt, om 18:38 UTC
Verwachting geldig van 10 om 19 UTC tot 11 om 05 UTC
Wind 5 kt uit het noordwesten
Zicht: 10 km
Gebroken wolken op 800 ft
Tijdelijke
van 10 om 19 UTC tot 10 om 21 UTC
Weinig wolken op 800 ft
Verspreide wolken op 1200 ft
Van 10 om 2100 UTC
Wind 5 kt uit het noordwesten
Zicht: 10 km
Weinig wolken op 1500 ft

TAF: CBBC 101838Z 1019/1105 32005KT P6SM BKN008 TEMPO 1019/1021 FEW008 SCT012 FM102100 32005KT P6SM FEW015 RMK FCST BASED ON AUTO OBS. NXT FCST BY 110100Z

Waarnemingen en weersverwachtingen van meer dan 4000 vliegvelden (METAR en TAF).

De beschikbare stations zijn de gele en rode punten op de kaart.

Ga met uw muis naar het station om de naam te zien.

Klik dan om waarnemingen en weersverwachtingen te zien.

kaart wijzigen: klik op de groene knoppen met een zwart kruis om in te zoomen, op de groene knop met een streepje om uit te zoomen of op de groene pijlen voor aangrenzende kaarten.


METAR-TAF: